Time;durP1;ratioP1;P1;durP2;ratioP2;P2;SDS_P1;SDS_P2;PMS_P1;PMS_P2;Temp;Humidity;BMP_temperature;BMP_pressure;BME280_temperature;BME280_humidity;BME280_pressure;Samples;Min_cycle;Max_cycle;Signal;HPM_P1;HPM_P2
2022/04/09 00:01:42;;;;;;;1.23;0.50;;;;;;;4.73;90.03;96439.44;4135197;28;20293;-82
2022/04/09 00:03:46;;;;;;;0.65;0.30;;;;;;;4.74;90.05;96454.00;4123147;28;20206;-82
2022/04/09 00:05:50;;;;;;;0.60;0.30;;;;;;;4.72;90.89;96445.53;4148484;28;20203;-82
2022/04/09 00:07:53;;;;;;;1.40;1.10;;;;;;;4.71;90.56;96453.41;4144786;28;20302;-81
2022/04/09 00:09:57;;;;;;;0.70;0.40;;;;;;;4.69;90.51;96463.84;4128053;28;20250;-82
2022/04/09 00:12:00;;;;;;;1.77;0.40;;;;;;;4.73;90.33;96482.50;4131020;28;20209;-82
2022/04/09 00:14:06;;;;;;;0.70;0.32;;;;;;;4.76;90.31;96501.16;4129935;28;20206;-82
2022/04/09 00:16:09;;;;;;;0.93;0.50;;;;;;;4.76;89.82;96508.91;4132511;28;20296;-82
2022/04/09 00:18:16;;;;;;;0.80;0.40;;;;;;;4.77;90.56;96514.91;4149000;28;20202;-82
2022/04/09 00:20:21;;;;;;;1.45;0.38;;;;;;;4.76;90.25;96523.59;4136347;28;20260;-82
2022/04/09 00:22:24;;;;;;;0.80;0.45;;;;;;;4.77;89.82;96523.47;4129221;28;20234;-82
2022/04/09 00:24:27;;;;;;;0.90;0.40;;;;;;;4.78;91.05;96526.88;4128628;28;20212;-82
2022/04/09 00:26:31;;;;;;;1.45;0.50;;;;;;;4.80;90.63;96543.09;4127567;28;20242;-81
2022/04/09 00:28:34;;;;;;;0.85;0.50;;;;;;;4.82;90.32;96556.72;4123227;28;20677;-82
2022/04/09 00:30:38;;;;;;;1.00;0.50;;;;;;;4.78;90.10;96565.59;4134058;28;20308;-82
2022/04/09 00:32:41;;;;;;;0.80;0.50;;;;;;;4.80;90.83;96577.50;4122202;28;20205;-82
2022/04/09 00:34:44;;;;;;;0.95;0.50;;;;;;;4.76;90.66;96601.03;4129781;28;20226;-82
2022/04/09 00:36:49;;;;;;;1.08;0.55;;;;;;;4.73;89.43;96622.72;4132413;28;20215;-81
2022/04/09 00:38:52;;;;;;;1.10;0.65;;;;;;;4.64;90.84;96632.06;4134371;28;20199;-82
2022/04/09 00:40:57;;;;;;;0.80;0.55;;;;;;;4.60;89.40;96652.09;4130689;28;20263;-82
2022/04/09 00:43:01;;;;;;;1.02;0.50;;;;;;;4.60;90.43;96667.56;4133229;28;20229;-82
2022/04/09 00:45:05;;;;;;;0.80;0.45;;;;;;;4.56;90.06;96673.06;4135217;28;20211;-81
2022/04/09 00:47:08;;;;;;;0.70;0.40;;;;;;;4.54;90.98;96678.31;4135422;28;20249;-83
2022/04/09 00:49:14;;;;;;;0.80;0.40;;;;;;;4.53;90.91;96671.50;4121495;28;20210;-80
2022/04/09 00:51:18;;;;;;;0.70;0.40;;;;;;;4.58;91.73;96679.75;4131489;28;20255;-80
2022/04/09 00:53:23;;;;;;;0.80;0.50;;;;;;;4.60;91.15;96683.06;4130355;28;20305;-81
2022/04/09 00:57:46;;;;;;;0.90;0.50;;;;;;;4.62;91.80;96703.63;4144589;28;20209;-81
2022/04/09 00:59:50;;;;;;;0.80;0.57;;;;;;;4.66;90.72;96703.31;4124626;28;20681;-81
2022/04/09 01:01:54;;;;;;;0.80;0.57;;;;;;;4.66;91.74;96713.63;4133954;28;20229;-81
2022/04/09 01:03:59;;;;;;;1.00;0.70;;;;;;;4.68;91.30;96717.75;4130466;28;20300;-80
2022/04/09 01:06:04;;;;;;;0.90;0.60;;;;;;;4.71;90.96;96721.88;4129999;28;20209;-80
2022/04/09 01:08:08;;;;;;;0.70;0.40;;;;;;;4.69;90.86;96728.88;4127378;28;20661;-80
2022/04/09 01:10:12;;;;;;;0.90;0.60;;;;;;;4.70;90.57;96722.81;4127410;28;20900;-81
2022/04/09 01:12:16;;;;;;;0.85;0.50;;;;;;;4.72;90.73;96737.28;4128934;28;20767;-81
2022/04/09 01:14:20;;;;;;;0.80;0.60;;;;;;;4.72;90.51;96742.44;4129573;28;20229;-81
2022/04/09 01:16:24;;;;;;;0.95;0.63;;;;;;;4.74;90.59;96744.91;4130559;28;20666;-81
2022/04/09 01:18:27;;;;;;;0.90;0.60;;;;;;;4.73;90.53;96769.88;4131078;28;20231;-81
2022/04/09 01:20:43;;;;;;;0.90;0.77;;;;;;;4.75;90.94;96780.97;4121109;28;20222;-81
2022/04/09 01:22:48;;;;;;;0.80;0.60;;;;;;;4.76;90.24;96798.06;4128061;28;20226;-81
2022/04/09 01:24:53;;;;;;;0.85;0.75;;;;;;;4.75;89.99;96805.94;4143636;28;20233;-81
2022/04/09 01:26:58;;;;;;;0.82;0.70;;;;;;;4.76;90.74;96815.34;4129787;28;20268;-81
2022/04/09 01:29:12;;;;;;;0.90;0.77;;;;;;;4.72;91.05;96819.88;4117743;28;20215;-81
2022/04/09 01:31:15;;;;;;;1.00;0.85;;;;;;;4.72;91.26;96835.38;4131525;28;20207;-81
2022/04/09 01:33:20;;;;;;;1.23;0.90;;;;;;;4.74;90.84;96846.41;4133110;28;20211;-81
2022/04/09 01:35:24;;;;;;;1.40;1.10;;;;;;;4.76;90.46;96854.88;4144828;28;20675;-81
2022/04/09 01:37:28;;;;;;;1.60;1.30;;;;;;;4.78;91.18;96865.97;4130342;28;20205;-81
2022/04/09 01:39:33;;;;;;;1.60;1.35;;;;;;;4.78;91.15;96868.53;4129863;28;20646;-81
2022/04/09 01:41:36;;;;;;;1.48;1.20;;;;;;;4.81;90.82;96882.97;4130513;28;20216;-82
2022/04/09 01:43:41;;;;;;;1.40;1.00;;;;;;;4.80;91.43;96881.34;4149129;28;20235;-81
2022/04/09 01:45:45;;;;;;;1.20;1.00;;;;;;;4.82;90.94;96884.66;4135554;28;20213;-81
2022/04/09 01:47:53;;;;;;;1.20;1.00;;;;;;;4.86;91.52;96891.28;4144129;28;20206;-81
2022/04/09 01:49:56;;;;;;;1.65;1.02;;;;;;;4.86;91.64;96896.44;4144764;28;20760;-81
2022/04/09 01:52:00;;;;;;;1.02;0.80;;;;;;;4.88;91.22;96907.50;4128554;28;20194;-81
2022/04/09 01:54:03;;;;;;;1.80;1.40;;;;;;;4.88;90.71;96912.66;4132046;28;20284;-81
2022/04/09 01:56:08;;;;;;;1.80;1.50;;;;;;;4.85;91.20;96915.44;4129889;28;20298;-81
2022/04/09 01:58:14;;;;;;;1.55;1.40;;;;;;;4.87;90.71;96923.91;4121544;28;20241;-81
2022/04/09 02:00:22;;;;;;;1.92;1.65;;;;;;;4.87;90.63;96926.50;4131712;28;20234;-81
2022/04/09 02:02:27;;;;;;;1.95;1.75;;;;;;;4.88;91.33;96923.81;4136275;28;20210;-81
2022/04/09 02:04:31;;;;;;;2.30;2.10;;;;;;;4.91;90.28;96939.09;4133921;28;20205;-81
2022/04/09 02:06:34;;;;;;;2.03;1.83;;;;;;;4.90;91.42;96944.38;4146103;28;20238;-81
2022/04/09 02:08:38;;;;;;;2.30;1.98;;;;;;;4.91;91.25;96951.19;4128424;28;20695;-80
2022/04/09 02:10:43;;;;;;;1.98;1.77;;;;;;;4.92;90.41;96953.69;4146782;28;20330;-81
2022/04/09 02:12:48;;;;;;;2.03;1.75;;;;;;;4.83;89.80;96961.19;4129717;28;20210;-81
2022/04/09 02:14:53;;;;;;;2.22;1.80;;;;;;;4.78;91.06;96958.91;4131232;28;20214;-81
2022/04/09 02:16:56;;;;;;;1.92;1.70;;;;;;;4.79;90.49;96967.47;4130902;28;20272;-81
2022/04/09 02:18:59;;;;;;;1.80;1.65;;;;;;;4.81;90.77;96970.78;4148237;28;20277;-81
2022/04/09 02:21:03;;;;;;;1.63;1.33;;;;;;;4.78;90.50;96970.97;4129303;28;20213;-81
2022/04/09 02:23:09;;;;;;;2.05;1.50;;;;;;;4.78;90.69;96982.16;4128277;28;20231;-81
2022/04/09 02:25:15;;;;;;;1.60;1.50;;;;;;;4.79;91.93;96991.53;4121179;28;20202;-81
2022/04/09 02:27:19;;;;;;;2.00;1.77;;;;;;;4.78;90.29;96996.78;4141033;28;20202;-82
2022/04/09 02:29:26;;;;;;;2.45;1.65;;;;;;;4.79;90.75;97004.44;4151927;28;20201;-81
2022/04/09 02:31:29;;;;;;;2.60;2.00;;;;;;;4.79;90.67;97006.22;4130098;28;20268;-81
2022/04/09 02:33:33;;;;;;;2.80;2.10;;;;;;;4.84;91.07;97017.06;4128332;28;20705;-81
2022/04/09 02:35:36;;;;;;;2.80;2.50;;;;;;;4.79;90.40;97017.34;4144127;28;20597;-82
2022/04/09 02:37:40;;;;;;;2.65;2.20;;;;;;;4.76;90.93;97024.47;4146308;28;20213;-81
2022/04/09 02:39:44;;;;;;;3.20;2.80;;;;;;;4.73;91.14;97032.41;4134730;28;20258;-82
2022/04/09 02:41:47;;;;;;;2.50;2.30;;;;;;;4.71;90.28;97048.00;4146404;28;20213;-81
2022/04/09 02:43:51;;;;;;;2.88;2.55;;;;;;;4.70;91.19;97045.50;4130512;28;20258;-81
2022/04/09 02:45:56;;;;;;;3.00;2.70;;;;;;;4.67;90.45;97057.78;4131531;28;20215;-81
2022/04/09 02:48:00;;;;;;;6.60;3.03;;;;;;;4.66;90.70;97059.56;4150833;28;20711;-81
2022/04/09 02:50:08;;;;;;;3.40;2.90;;;;;;;4.66;89.96;97079.34;4147751;28;20619;-81
2022/04/09 02:52:11;;;;;;;3.05;2.75;;;;;;;4.66;91.08;97087.94;4146103;28;20211;-81
2022/04/09 02:54:16;;;;;;;4.28;3.28;;;;;;;4.66;90.67;97094.84;4136316;28;20593;-81
2022/04/09 02:56:23;;;;;;;3.33;3.03;;;;;;;4.63;90.27;97111.38;4131454;28;20208;-81
2022/04/09 02:58:27;;;;;;;3.80;3.40;;;;;;;4.62;91.55;97111.47;4134720;28;20269;-81
2022/04/09 03:00:30;;;;;;;3.60;3.20;;;;;;;4.64;91.50;97122.53;4140453;28;20630;-81
2022/04/09 03:02:40;;;;;;;4.07;3.60;;;;;;;4.64;89.98;97128.50;4139762;28;20214;-81
2022/04/09 03:04:49;;;;;;;3.70;3.30;;;;;;;4.66;90.63;97133.56;4139689;28;20252;-81
2022/04/09 03:06:52;;;;;;;4.05;3.65;;;;;;;4.63;90.63;97137.19;4136424;28;20837;-81
2022/04/09 03:08:56;;;;;;;4.60;3.60;;;;;;;4.64;90.80;97151.72;4128444;28;20218;-81
2022/04/09 03:10:59;;;;;;;4.18;3.78;;;;;;;4.63;91.01;97144.09;4130149;28;20247;-81
2022/04/09 03:13:04;;;;;;;4.15;3.75;;;;;;;4.65;91.17;97152.59;4119002;28;20219;-81
2022/04/09 03:15:08;;;;;;;4.88;4.10;;;;;;;4.63;90.64;97155.25;4129585;28;20264;-81
2022/04/09 03:17:12;;;;;;;5.35;4.85;;;;;;;4.62;90.79;97161.34;4135004;28;20597;-81
2022/04/09 03:19:17;;;;;;;5.10;4.60;;;;;;;4.64;91.11;97179.31;4132439;28;20210;-81
2022/04/09 03:21:21;;;;;;;5.35;4.85;;;;;;;4.61;91.70;97182.91;4144084;28;20245;-81
2022/04/09 03:23:24;;;;;;;5.72;5.13;;;;;;;4.62;91.64;97182.00;4144372;28;20214;-81
2022/04/09 03:25:31;;;;;;;6.40;4.97;;;;;;;4.62;91.54;97192.31;4145410;28;20209;-81
2022/04/09 03:27:36;;;;;;;5.60;4.85;;;;;;;4.63;91.89;97193.97;4133653;28;20244;-81
2022/04/09 03:29:40;;;;;;;7.22;5.90;;;;;;;4.63;92.08;97193.97;4154320;28;20540;-82
2022/04/09 03:31:46;;;;;;;6.15;5.55;;;;;;;4.63;91.82;97193.97;4146484;28;20209;-81
2022/04/09 03:33:52;;;;;;;5.72;5.15;;;;;;;4.62;91.96;97202.63;4134950;28;20229;-81
2022/04/09 03:35:58;;;;;;;5.82;4.90;;;;;;;4.60;91.48;97207.06;4131024;28;20786;-81
2022/04/09 03:38:05;;;;;;;6.57;5.90;;;;;;;4.61;92.39;97210.47;4138054;28;20210;-81
2022/04/09 03:40:19;;;;;;;6.80;5.90;;;;;;;4.62;91.72;97215.53;4135204;28;20265;-81
2022/04/09 03:42:22;;;;;;;6.15;5.55;;;;;;;4.59;92.37;97213.16;4133540;28;20220;-81
2022/04/09 03:44:30;;;;;;;6.60;5.85;;;;;;;4.61;91.96;97226.78;4142699;28;20263;-81
2022/04/09 03:46:33;;;;;;;6.47;5.78;;;;;;;4.60;91.91;97229.44;4148917;28;20246;-81
2022/04/09 03:48:43;;;;;;;6.55;5.82;;;;;;;4.61;92.00;97237.09;4133199;28;20238;-81
2022/04/09 03:50:48;;;;;;;7.72;6.63;;;;;;;4.60;91.42;97235.47;4127270;28;20237;-81
2022/04/09 03:52:57;;;;;;;7.57;5.43;;;;;;;4.62;92.92;97238.78;4124008;28;20208;-81
2022/04/09 03:55:02;;;;;;;7.72;6.45;;;;;;;4.63;91.68;97245.63;4131341;28;20210;-81
2022/04/09 03:57:05;;;;;;;6.28;5.63;;;;;;;4.60;91.65;97253.53;4150780;28;20217;-81
2022/04/09 03:59:19;;;;;;;6.03;5.00;;;;;;;4.62;91.86;97256.84;4148437;28;20604;-81
2022/04/09 04:01:26;;;;;;;6.18;5.35;;;;;;;4.59;91.77;97264.78;4148947;28;20733;-81
2022/04/09 04:03:34;;;;;;;6.50;5.70;;;;;;;4.56;92.87;97272.69;4139734;28;20204;-81
2022/04/09 04:05:38;;;;;;;7.18;6.13;;;;;;;4.59;93.10;97272.53;4149409;28;20694;-81
2022/04/09 04:07:44;;;;;;;5.70;4.80;;;;;;;4.65;92.35;97269.59;4149554;28;20284;-80
2022/04/09 04:09:50;;;;;;;6.70;5.18;;;;;;;4.67;93.04;97283.22;4119539;28;20242;-81
2022/04/09 04:11:54;;;;;;;5.75;5.10;;;;;;;4.68;92.77;97281.50;4130715;28;20219;-81
2022/04/09 04:13:58;;;;;;;6.35;5.63;;;;;;;4.72;92.06;97291.53;4135099;28;20405;-81
2022/04/09 04:16:04;;;;;;;6.03;5.25;;;;;;;4.75;92.63;97301.66;4143303;28;20688;-81
2022/04/09 04:18:12;;;;;;;6.00;5.15;;;;;;;4.77;91.88;97298.09;4119869;28;20235;-81
2022/04/09 04:20:19;;;;;;;5.78;4.78;;;;;;;4.78;92.14;97296.34;4134826;28;20274;-81
2022/04/09 04:22:25;;;;;;;5.75;5.15;;;;;;;4.78;92.57;97301.50;4130747;28;20226;-81
2022/04/09 04:24:29;;;;;;;6.93;5.72;;;;;;;4.75;91.81;97312.00;4144601;28;20857;-81
2022/04/09 04:26:34;;;;;;;7.15;5.25;;;;;;;4.76;92.49;97316.25;4131870;28;20222;-81
2022/04/09 04:28:48;;;;;;;6.25;5.55;;;;;;;4.76;91.85;97327.41;4147995;28;20215;-81
2022/04/09 04:30:53;;;;;;;10.45;5.90;;;;;;;4.76;91.62;97324.00;4145994;28;20210;-81
2022/04/09 04:32:58;;;;;;;6.38;5.40;;;;;;;4.77;93.29;97330.84;4149067;28;20219;-81
2022/04/09 04:35:13;;;;;;;6.88;5.65;;;;;;;4.81;92.04;97337.47;4137728;28;20312;-81
2022/04/09 04:37:17;;;;;;;7.80;5.90;;;;;;;4.82;92.46;97339.16;4146518;28;20578;-81
2022/04/09 04:39:20;;;;;;;7.85;6.18;;;;;;;4.80;93.17;97346.97;4134422;28;20209;-81
2022/04/09 04:41:27;;;;;;;7.75;6.57;;;;;;;4.83;92.70;97357.13;4146471;28;20680;-82
2022/04/09 04:43:33;;;;;;;7.35;6.15;;;;;;;4.86;92.02;97353.56;4138138;28;20206;-82
2022/04/09 04:45:39;;;;;;;7.63;6.22;;;;;;;4.87;93.02;97360.38;4124424;28;20241;-81
2022/04/09 04:47:47;;;;;;;7.20;6.20;;;;;;;4.90;92.29;97362.78;4132794;28;20767;-82
2022/04/09 04:49:54;;;;;;;8.90;6.57;;;;;;;4.92;92.35;97368.69;4124748;28;20201;-82
2022/04/09 04:51:59;;;;;;;8.18;6.20;;;;;;;4.98;91.59;97370.94;4135364;28;20264;-82
2022/04/09 04:54:05;;;;;;;10.05;7.28;;;;;;;5.00;91.83;97374.25;4132642;28;20248;-82
2022/04/09 04:56:10;;;;;;;9.60;6.82;;;;;;;5.01;91.39;97379.31;4136538;28;20738;-83
2022/04/09 04:58:21;;;;;;;7.95;6.28;;;;;;;5.03;92.01;97379.25;4135565;28;20204;-82
2022/04/09 05:00:33;;;;;;;9.60;6.40;;;;;;;5.04;91.55;97388.66;4136178;28;20236;-82
2022/04/09 05:02:40;;;;;;;7.95;7.10;;;;;;;5.06;92.38;97392.78;4145228;28;20214;-82
2022/04/09 05:04:44;;;;;;;7.88;6.40;;;;;;;5.12;91.48;97389.84;4145641;28;21712;-82
2022/04/09 05:06:48;;;;;;;7.60;5.93;;;;;;;5.13;91.38;97401.00;4147987;28;20680;-82
2022/04/09 05:08:54;;;;;;;6.80;5.70;;;;;;;5.13;92.35;97413.03;4131577;28;20211;-82
2022/04/09 05:11:05;;;;;;;9.20;6.35;;;;;;;5.14;92.52;97414.69;4135553;28;20209;-82
2022/04/09 05:13:11;;;;;;;8.30;6.38;;;;;;;5.16;92.18;97412.03;4132442;28;20214;-84
2022/04/09 05:15:16;;;;;;;7.13;5.68;;;;;;;5.19;91.89;97420.44;4129188;28;20295;-82
2022/04/09 05:17:23;;;;;;;9.05;6.93;;;;;;;5.14;90.98;97427.63;4121312;28;20841;-82
2022/04/09 05:19:28;;;;;;;8.50;6.80;;;;;;;5.08;91.10;97427.13;4134776;28;20315;-81
2022/04/09 05:21:40;;;;;;;10.60;7.10;;;;;;;5.08;91.79;97436.63;4138624;28;20205;-82
2022/04/09 05:23:44;;;;;;;11.20;7.85;;;;;;;5.10;92.20;97440.81;4132039;28;20239;-82
2022/04/09 05:25:47;;;;;;;9.10;7.30;;;;;;;5.05;91.86;97444.56;4135796;28;20234;-81
2022/04/09 05:27:54;;;;;;;8.82;6.90;;;;;;;5.06;92.19;97444.47;4138501;28;20208;-82
2022/04/09 05:30:09;;;;;;;9.43;7.40;;;;;;;5.12;91.03;97448.47;4137495;28;21102;-82
2022/04/09 05:32:15;;;;;;;10.15;7.03;;;;;;;5.02;91.13;97460.22;4145735;28;20212;-82
2022/04/09 05:34:20;;;;;;;10.38;7.25;;;;;;;4.98;91.80;97457.00;4130721;28;20229;-82
2022/04/09 05:36:24;;;;;;;9.90;7.30;;;;;;;4.97;91.58;97462.25;4120244;28;20210;-82
2022/04/09 05:38:31;;;;;;;9.55;7.30;;;;;;;5.01;92.41;97468.91;4145524;28;20601;-81
2022/04/09 05:40:36;;;;;;;10.57;7.15;;;;;;;5.00;91.34;97465.47;4146658;28;20639;-82
2022/04/09 05:42:46;;;;;;;9.27;7.15;;;;;;;5.03;91.85;97473.06;4144976;28;20239;-81
2022/04/09 05:44:51;;;;;;;11.95;8.23;;;;;;;5.07;92.06;97476.31;4132782;28;20329;-82
2022/04/09 05:46:56;;;;;;;11.05;6.80;;;;;;;5.09;91.65;97482.22;4146930;28;20208;-81
2022/04/09 05:49:00;;;;;;;10.75;7.40;;;;;;;5.13;91.73;97488.88;4145079;28;20208;-82
2022/04/09 05:51:04;;;;;;;10.13;7.38;;;;;;;5.15;91.85;97483.53;4144441;28;20244;-82
2022/04/09 05:53:12;;;;;;;10.63;7.95;;;;;;;5.19;91.85;97495.38;4144879;28;20211;-82
2022/04/09 05:55:17;;;;;;;9.77;7.90;;;;;;;5.21;91.78;97498.69;4125950;28;20309;-82
2022/04/09 05:57:20;;;;;;;10.85;8.55;;;;;;;5.23;91.81;97506.34;4118035;28;20215;-82
2022/04/09 05:59:26;;;;;;;10.60;8.13;;;;;;;5.23;91.95;97507.22;4143752;28;20237;-82
2022/04/09 06:01:30;;;;;;;10.98;7.55;;;;;;;5.26;91.75;97512.19;4147372;28;20207;-82
2022/04/09 06:03:38;;;;;;;10.93;8.18;;;;;;;5.26;91.46;97514.78;4122433;28;20245;-82
2022/04/09 06:05:42;;;;;;;11.60;8.13;;;;;;;5.26;90.47;97521.69;4146539;28;20225;-82
2022/04/09 06:07:54;;;;;;;11.20;8.05;;;;;;;5.26;90.86;97517.38;4132937;28;20223;-82
2022/04/09 06:09:58;;;;;;;11.77;8.38;;;;;;;5.25;90.66;97523.44;4147755;28;20213;-82
2022/04/09 06:12:01;;;;;;;11.07;9.18;;;;;;;5.30;90.82;97528.34;4130569;28;20210;-82
2022/04/09 06:14:18;;;;;;;12.25;8.93;;;;;;;5.31;91.02;97541.19;4135706;28;20320;-82
2022/04/09 06:16:22;;;;;;;13.93;9.35;;;;;;;5.26;90.92;97538.03;4119965;28;20203;-82
2022/04/09 06:18:28;;;;;;;12.38;8.90;;;;;;;5.21;90.33;97550.38;4138820;28;20214;-82
2022/04/09 06:20:32;;;;;;;14.80;9.90;;;;;;;5.21;90.31;97542.63;4147236;28;20220;-82
2022/04/09 06:22:37;;;;;;;13.43;8.75;;;;;;;5.26;91.17;97555.28;4135036;28;20288;-82
2022/04/09 06:24:42;;;;;;;14.30;9.60;;;;;;;5.21;91.50;97555.53;4122073;28;20211;-82
2022/04/09 06:26:46;;;;;;;11.55;9.02;;;;;;;5.20;91.52;97565.97;4136032;28;20257;-82
2022/04/09 06:28:49;;;;;;;12.68;9.75;;;;;;;5.22;91.34;97570.13;4150604;28;20259;-82
2022/04/09 06:30:53;;;;;;;12.85;9.93;;;;;;;5.25;91.63;97580.31;4135261;28;20802;-82
2022/04/09 06:32:59;;;;;;;12.13;9.80;;;;;;;5.29;90.84;97586.13;4147019;28;20255;-82
2022/04/09 06:35:04;;;;;;;15.88;10.20;;;;;;;5.26;90.31;97584.56;4148736;28;20241;-82
2022/04/09 06:37:07;;;;;;;13.95;9.38;;;;;;;5.18;90.15;97591.06;4145668;28;20248;-82
2022/04/09 06:39:13;;;;;;;14.73;9.68;;;;;;;5.14;90.35;97603.34;4133502;28;20902;-82
2022/04/09 06:41:18;;;;;;;13.95;10.07;;;;;;;5.14;91.78;97605.91;4138639;28;20695;-82
2022/04/09 06:43:22;;;;;;;12.15;9.63;;;;;;;5.15;92.02;97615.31;4116854;28;20226;-82
2022/04/09 06:45:40;;;;;;;13.80;11.05;;;;;;;5.18;91.42;97620.31;4143231;28;20230;-82
2022/04/09 06:48:09;;;;;;;15.02;11.18;;;;;;;5.23;92.02;97620.91;4119703;28;20670;-82
2022/04/09 06:50:21;;;;;;;13.95;11.52;;;;;;;5.20;91.96;97628.84;4148665;28;20246;-82
2022/04/09 06:52:25;;;;;;;13.15;10.35;;;;;;;5.20;91.83;97625.41;4146507;28;20277;-82
2022/04/09 06:54:43;;;;;;;14.45;11.20;;;;;;;5.22;92.10;97639.91;4132723;28;20275;-82
2022/04/09 06:56:49;;;;;;;13.45;10.43;;;;;;;5.26;91.90;97636.25;4137154;28;20229;-82
2022/04/09 06:58:55;;;;;;;12.75;10.25;;;;;;;5.30;92.10;97637.75;4122481;28;20214;-81
2022/04/09 07:00:59;;;;;;;18.27;11.38;;;;;;;5.36;92.47;97634.81;4147532;28;20265;-82
2022/04/09 07:03:05;;;;;;;17.25;11.70;;;;;;;5.41;91.83;97637.16;4119323;28;20219;-82
2022/04/09 07:05:09;;;;;;;13.70;11.23;;;;;;;5.50;92.11;97644.41;4137447;28;20217;-82
2022/04/09 07:07:12;;;;;;;14.18;11.50;;;;;;;5.60;91.60;97645.56;4135423;28;20333;-82
2022/04/09 07:09:15;;;;;;;15.60;11.15;;;;;;;5.71;92.21;97655.22;4134354;28;20321;-82
2022/04/09 07:11:18;;;;;;;14.75;12.20;;;;;;;5.82;92.21;97649.47;4133230;28;20218;-81
2022/04/09 07:13:23;;;;;;;16.60;11.32;;;;;;;5.88;91.42;97662.91;4136267;28;20651;-82
2022/04/09 07:15:26;;;;;;;14.10;11.68;;;;;;;5.95;91.32;97663.38;4133153;28;20243;-82
2022/04/09 07:17:33;;;;;;;15.70;11.80;;;;;;;6.04;91.22;97673.19;4145602;28;20213;-81
2022/04/09 07:19:38;;;;;;;19.05;12.05;;;;;;;6.03;90.67;97672.38;4132806;28;20215;-82
2022/04/09 07:21:41;;;;;;;15.50;12.05;;;;;;;6.07;90.89;97676.44;4132238;28;20294;-82
2022/04/09 07:23:48;;;;;;;16.20;12.05;;;;;;;6.12;90.64;97685.63;4133108;28;20205;-82
2022/04/09 07:25:52;;;;;;;15.80;11.40;;;;;;;6.06;90.16;97684.28;4134660;28;20223;-82
2022/04/09 07:27:55;;;;;;;16.83;10.88;;;;;;;6.09;90.64;97690.16;4137348;28;20215;-82
2022/04/09 07:30:00;;;;;;;14.60;11.05;;;;;;;6.04;89.82;97689.53;4138559;28;20261;-82
2022/04/09 07:32:03;;;;;;;16.25;11.55;;;;;;;6.07;90.66;97688.56;4131715;28;20709;-81
2022/04/09 07:34:06;;;;;;;13.90;10.25;;;;;;;6.08;89.86;97690.22;4136764;28;20665;-82
2022/04/09 07:36:10;;;;;;;15.10;11.27;;;;;;;6.13;89.84;97694.19;4131346;28;20656;-82
2022/04/09 07:38:14;;;;;;;17.52;11.75;;;;;;;6.21;90.21;97700.63;4131961;28;20785;-82
2022/04/09 07:40:19;;;;;;;14.50;10.73;;;;;;;6.31;89.83;97701.75;4136892;28;20203;-82
2022/04/09 07:42:23;;;;;;;15.50;10.73;;;;;;;6.45;89.80;97701.78;4131757;28;20209;-82
2022/04/09 07:44:26;;;;;;;14.98;10.15;;;;;;;6.53;89.82;97704.75;4132039;28;20199;-82
2022/04/09 07:46:31;;;;;;;16.33;11.40;;;;;;;6.55;89.32;97702.91;4133512;28;20594;-82
2022/04/09 07:48:35;;;;;;;14.43;11.00;;;;;;;6.65;89.60;97711.81;4135531;28;20756;-82
2022/04/09 07:50:39;;;;;;;18.27;12.43;;;;;;;6.78;88.60;97707.56;4148625;28;20222;-81
2022/04/09 07:52:43;;;;;;;19.42;13.80;;;;;;;6.96;88.38;97714.22;4147265;28;21333;-82
2022/04/09 07:54:46;;;;;;;14.05;10.52;;;;;;;7.04;89.26;97718.03;4131526;28;20244;-82
2022/04/09 07:56:49;;;;;;;12.20;9.75;;;;;;;7.13;88.30;97718.31;4130932;28;20709;-82
2022/04/09 07:58:53;;;;;;;16.67;11.50;;;;;;;7.15;88.29;97719.03;4136739;28;20675;-82
2022/04/09 08:00:56;;;;;;;16.50;11.40;;;;;;;7.11;87.60;97727.94;4133966;28;20623;-82
2022/04/09 08:03:01;;;;;;;11.27;9.55;;;;;;;7.07;87.22;97728.22;4138283;28;20211;-82
2022/04/09 08:05:05;;;;;;;13.80;10.52;;;;;;;7.01;85.99;97731.19;4123369;28;20784;-81
2022/04/09 08:07:08;;;;;;;20.42;11.63;;;;;;;6.99;87.53;97727.88;4130633;28;20337;-80
2022/04/09 08:09:12;;;;;;;12.38;9.02;;;;;;;6.97;87.41;97729.69;4123319;28;20651;-84
2022/04/09 08:11:15;;;;;;;15.57;10.32;;;;;;;6.98;86.70;97735.72;4137423;28;20203;-83
2022/04/09 08:13:18;;;;;;;15.85;10.80;;;;;;;6.99;86.91;97734.78;4135733;28;20249;-82
2022/04/09 08:15:24;;;;;;;13.43;9.60;;;;;;;7.04;87.69;97741.38;4135898;28;20206;-83
2022/04/09 08:17:27;;;;;;;15.07;9.82;;;;;;;7.09;87.96;97745.34;4136975;28;20222;-83
2022/04/09 08:19:32;;;;;;;13.50;9.25;;;;;;;7.17;87.59;97745.72;4131434;28;20883;-84
2022/04/09 08:21:35;;;;;;;12.27;9.30;;;;;;;7.22;86.82;97743.69;4132874;28;20212;-84
2022/04/09 08:23:38;;;;;;;11.05;8.30;;;;;;;7.36;86.75;97745.44;4137879;28;20287;-84
2022/04/09 08:25:42;;;;;;;11.63;9.23;;;;;;;7.43;86.18;97744.13;4136519;28;20250;-84
2022/04/09 08:27:49;;;;;;;13.55;8.68;;;;;;;7.55;85.72;97749.41;4133949;28;20247;-85
2022/04/09 08:29:52;;;;;;;15.13;10.18;;;;;;;7.64;85.64;97746.25;4133392;28;20217;-84
2022/04/09 08:31:56;;;;;;;13.63;8.43;;;;;;;7.68;85.16;97747.69;4123491;28;20248;-86
2022/04/09 08:34:00;;;;;;;19.35;9.60;;;;;;;7.66;84.70;97742.59;4152028;28;20226;-86
2022/04/09 08:36:05;;;;;;;15.13;9.05;;;;;;;7.70;84.93;97751.06;4151554;28;20200;-88
2022/04/09 08:38:08;;;;;;;16.67;9.68;;;;;;;7.77;84.58;97757.50;4132711;28;20200;-85
2022/04/09 08:40:15;;;;;;;13.35;7.55;;;;;;;7.81;84.52;97751.22;4116929;28;20242;-85
2022/04/09 08:42:18;;;;;;;13.10;7.40;;;;;;;7.88;82.24;97750.72;4135130;28;20229;-86
2022/04/09 08:44:21;;;;;;;10.32;7.15;;;;;;;7.96;81.71;97752.84;4121775;28;20201;-85
2022/04/09 08:46:27;;;;;;;11.90;7.20;;;;;;;7.99;82.18;97756.06;4140155;28;20757;-86
2022/04/09 08:48:31;;;;;;;10.18;7.95;;;;;;;8.02;81.00;97751.50;4134220;28;20231;-86
2022/04/09 08:50:37;;;;;;;11.60;7.88;;;;;;;8.02;81.76;97754.09;4137489;28;20219;-88
2022/04/09 08:52:44;;;;;;;10.52;7.38;;;;;;;7.97;82.35;97750.16;4121551;28;20237;-85
2022/04/09 08:54:47;;;;;;;15.13;7.82;;;;;;;7.99;82.33;97754.28;4123464;28;20218;-85
2022/04/09 08:56:51;;;;;;;10.77;7.78;;;;;;;8.30;83.22;97758.38;4136689;28;20301;-84
2022/04/09 08:58:55;;;;;;;10.95;7.65;;;;;;;8.42;82.38;97760.19;4131224;28;20346;-86
2022/04/09 09:00:58;;;;;;;12.45;7.88;;;;;;;8.81;82.80;97759.25;4134581;28;20240;-85
2022/04/09 09:03:10;;;;;;;11.98;6.50;;;;;;;9.30;81.50;97761.00;4137089;28;20264;-85
2022/04/09 09:05:28;;;;;;;13.15;7.10;;;;;;;9.67;79.66;97760.16;4151731;28;20339;-85
2022/04/09 09:07:32;;;;;;;9.40;6.78;;;;;;;9.90;80.72;97774.03;4143229;28;20220;-84
2022/04/09 09:09:36;;;;;;;9.65;6.28;;;;;;;9.71;78.16;97767.63;4137454;28;20211;-85
2022/04/09 09:11:48;;;;;;;10.63;6.20;;;;;;;9.57;78.50;97764.31;4135129;28;20225;-85
2022/04/09 09:13:55;;;;;;;10.00;5.93;;;;;;;9.77;78.47;97767.19;4132328;28;20219;-84
2022/04/09 09:15:58;;;;;;;8.93;5.95;;;;;;;9.66;76.13;97772.31;4146831;28;20207;-86
2022/04/09 09:18:02;;;;;;;8.20;6.00;;;;;;;9.50;75.90;97769.13;4125545;28;20254;-89
2022/04/09 09:20:12;;;;;;;12.30;5.37;;;;;;;9.38;75.76;97782.97;4135574;28;20747;-85
2022/04/09 09:22:15;;;;;;;6.30;5.38;;;;;;;9.31;75.65;97767.91;4146794;28;21046;-86
2022/04/09 09:24:19;;;;;;;10.07;7.10;;;;;;;9.30;76.54;97773.19;4131106;28;20213;-85
2022/04/09 09:26:25;;;;;;;9.60;6.53;;;;;;;9.18;76.00;97781.84;4136157;28;20204;-85
2022/04/09 09:28:29;;;;;;;7.00;5.50;;;;;;;9.09;75.64;97783.28;4140067;28;20266;-86
2022/04/09 09:30:48;;;;;;;8.30;5.57;;;;;;;9.09;75.15;97783.28;4132585;28;20639;-86
2022/04/09 09:33:07;;;;;;;7.63;5.93;;;;;;;9.32;77.05;97792.13;4138560;28;20271;-86
2022/04/09 09:35:47;;;;;;;9.70;6.00;;;;;;;9.56;77.40;97786.06;4131524;28;20203;-85
2022/04/09 09:37:50;;;;;;;9.68;5.55;;;;;;;9.63;76.78;97795.13;4147536;28;20302;-85
2022/04/09 09:39:54;;;;;;;8.23;6.05;;;;;;;9.55;74.20;97790.47;4140247;28;20209;-86
2022/04/09 09:42:02;;;;;;;9.13;6.20;;;;;;;9.55;75.00;97787.03;4122682;28;20273;-85
2022/04/09 09:44:06;;;;;;;13.03;6.00;;;;;;;9.56;76.04;97784.31;4139373;28;20642;-86
2022/04/09 09:46:10;;;;;;;13.00;7.00;;;;;;;9.63;76.01;97788.16;4138016;28;20679;-85
2022/04/09 09:48:23;;;;;;;8.47;6.30;;;;;;;9.57;75.37;97782.53;4136961;28;20653;-85
2022/04/09 09:50:40;;;;;;;9.50;6.30;;;;;;;9.43;75.32;97793.06;4128358;28;20664;-85
2022/04/09 09:52:44;;;;;;;10.70;5.87;;;;;;;9.40;75.38;97788.91;4140830;28;20631;-85
2022/04/09 09:54:58;;;;;;;7.53;5.33;;;;;;;9.83;76.56;97792.78;4156819;28;20661;-86
2022/04/09 09:57:02;;;;;;;6.63;5.25;;;;;;;10.28;76.82;97800.81;4135219;28;20940;-86